Terminal Aerodrome Forecast
Issued by NWS

Home | Current Version | Previous Version | Text Only | Print | Product List | Glossary On
Versions: 1 2 3 4 5 6 7 8 9 10 11 12 13 14 15 16 17 18 19 20 21 22 23 24 25 26 27 28 29 30
000
FTUS41 KALY 200700 AAA
TAFPSF
TAF AMD
KPSF 200759Z 2008/2106 33006KT P6SM FEW015
     FM201200 VRB03KT P6SM FEW020
     FM201700 35004KT P6SM SCT020 BKN035
     FM210100 VRB03KT P6SM SCT020 BKN050=

USA.gov is the U.S. government's official web portal to all federal, state and local government web resources and services.